createdAt,value
2022-09-12T00:05:13.849Z,16.27
2022-09-12T00:10:45.613Z,16.22
2022-09-12T00:16:17.342Z,16.3
2022-09-12T00:21:53.425Z,16.35
2022-09-12T00:27:25.140Z,16.42
2022-09-12T00:32:56.861Z,16.43
2022-09-12T00:38:28.649Z,16.47
2022-09-12T00:44:00.272Z,16.34
2022-09-12T00:49:32.052Z,16.34
2022-09-12T00:55:03.809Z,16.4
2022-09-12T01:00:35.448Z,16.4
2022-09-12T01:06:07.166Z,16.4
2022-09-12T01:11:38.958Z,16.3
2022-09-12T01:17:10.909Z,16.29
2022-09-12T01:22:48.783Z,16.15
2022-09-12T01:28:20.600Z,16.26
2022-09-12T01:33:52.198Z,16.19
2022-09-12T01:39:23.941Z,16.2
2022-09-12T01:44:55.647Z,16.18
2022-09-12T01:50:27.350Z,16.14
2022-09-12T01:55:59.167Z,16.15
2022-09-12T02:01:30.910Z,16.1
2022-09-12T02:07:02.577Z,16.06
2022-09-12T02:12:34.757Z,15.97
2022-09-12T02:18:06.045Z,15.83
2022-09-12T02:23:44.153Z,15.7
2022-09-12T02:29:15.911Z,15.61
2022-09-12T02:34:47.569Z,15.53
2022-09-12T02:40:19.399Z,15.43
2022-09-12T02:45:51.069Z,15.43
2022-09-12T02:51:23.724Z,15.38
2022-09-12T02:56:54.489Z,15.39
2022-09-12T03:02:26.272Z,15.44
2022-09-12T03:07:57.942Z,15.45
2022-09-12T03:13:29.679Z,15.49
2022-09-12T03:19:01.361Z,15.45
2022-09-12T03:24:37.492Z,15.4
2022-09-12T03:30:09.213Z,15.33
2022-09-12T03:35:40.928Z,15.34
2022-09-12T03:41:12.653Z,15.33
2022-09-12T03:46:44.420Z,15.25
2022-09-12T03:52:16.161Z,15.18
2022-09-12T03:57:47.885Z,15.06
2022-09-12T04:03:19.546Z,15.0
2022-09-12T04:08:51.636Z,14.97
2022-09-12T04:14:23.033Z,14.86
2022-09-12T04:19:54.705Z,14.85
2022-09-12T04:25:30.825Z,14.8
2022-09-12T04:31:02.529Z,14.78
2022-09-12T04:36:34.232Z,14.74
2022-09-12T04:42:05.980Z,14.74
2022-09-12T04:47:37.667Z,14.75
2022-09-12T04:53:09.425Z,14.69
2022-09-12T04:58:41.181Z,14.58
2022-09-12T05:04:12.871Z,14.37
2022-09-12T05:09:44.602Z,14.37
2022-09-12T05:15:16.365Z,14.41
2022-09-12T05:20:48.062Z,14.39
2022-09-12T05:26:26.146Z,14.46
2022-09-12T05:31:57.882Z,14.47
2022-09-12T05:37:29.643Z,14.51
2022-09-12T05:43:01.272Z,14.62
2022-09-12T05:48:33.129Z,14.76
2022-09-12T05:54:04.762Z,14.84
2022-09-12T05:59:36.525Z,14.98
2022-09-12T06:05:08.262Z,15.04
2022-09-12T06:10:39.977Z,15.3
2022-09-12T06:16:11.658Z,15.31
2022-09-12T06:21:43.386Z,15.36
2022-09-12T06:27:21.499Z,15.39
2022-09-12T06:32:53.266Z,15.67
2022-09-12T06:38:24.960Z,15.51
2022-09-12T06:43:56.728Z,16.03
2022-09-12T06:49:28.385Z,16.47
2022-09-12T06:55:00.114Z,16.64
2022-09-12T07:00:31.838Z,17.06
2022-09-12T07:06:03.557Z,17.42
2022-09-12T07:11:35.280Z,17.8
2022-09-12T07:17:07.077Z,17.95
2022-09-12T07:22:38.734Z,17.81
2022-09-12T07:28:15.017Z,18.03
2022-09-12T07:33:49.047Z,17.77
2022-09-12T07:39:18.583Z,18.69
2022-09-12T07:44:50.093Z,19.0
2022-09-12T07:50:21.875Z,19.61
2022-09-12T07:55:53.496Z,19.82
2022-09-12T08:01:25.246Z,20.27
2022-09-12T08:06:56.962Z,19.66
2022-09-12T08:12:28.764Z,20.08
2022-09-12T08:18:00.458Z,20.15
2022-09-12T08:23:32.151Z,20.11
2022-09-12T08:29:10.269Z,20.3
2022-09-12T08:34:42.005Z,21.08
2022-09-12T08:40:13.785Z,20.84
2022-09-12T08:45:45.449Z,21.6
2022-09-12T08:51:17.184Z,21.66
2022-09-12T08:56:48.925Z,21.39
2022-09-12T09:02:20.635Z,21.59
2022-09-12T09:07:52.341Z,21.3
2022-09-12T09:13:24.090Z,21.43
2022-09-12T09:18:55.785Z,21.52
2022-09-12T09:24:27.648Z,22.3
2022-09-12T09:30:03.700Z,22.49
2022-09-12T09:35:36.602Z,22.71
2022-09-12T09:41:07.140Z,22.67
2022-09-12T09:46:38.862Z,23.22
2022-09-12T09:52:10.542Z,23.22
2022-09-12T09:57:42.260Z,23.1
2022-09-12T10:03:14.262Z,23.58
2022-09-12T10:08:46.114Z,24.03
2022-09-12T10:14:17.422Z,23.97
2022-09-12T10:19:59.851Z,24.1
2022-09-12T10:25:20.938Z,23.92
2022-09-12T10:30:57.109Z,24.14
2022-09-12T10:36:28.729Z,24.04
2022-09-12T10:42:00.464Z,24.13
2022-09-12T10:47:32.143Z,24.39
2022-09-12T10:53:03.896Z,24.83
2022-09-12T10:58:35.627Z,24.49
2022-09-12T11:04:07.438Z,25.0
2022-09-12T11:09:39.050Z,24.81
2022-09-12T11:15:10.854Z,24.42
2022-09-12T11:20:42.496Z,24.85
2022-09-12T11:26:14.277Z,25.5
2022-09-12T11:31:50.357Z,25.79
2022-09-12T11:37:22.082Z,25.72
2022-09-12T11:42:53.816Z,25.99
2022-09-12T11:48:25.523Z,25.89
2022-09-12T11:53:57.230Z,25.99
2022-09-12T11:59:28.949Z,25.9
2022-09-12T12:05:00.666Z,26.25
2022-09-12T12:10:32.385Z,26.63
2022-09-12T12:16:04.236Z,26.78
2022-09-12T12:21:36.001Z,26.52
2022-09-12T12:27:07.616Z,26.58
2022-09-12T12:32:43.729Z,26.94
2022-09-12T12:38:15.442Z,27.09
2022-09-12T12:43:47.239Z,27.1
2022-09-12T12:49:18.822Z,26.93
2022-09-12T12:54:50.886Z,26.57
2022-09-12T13:00:22.265Z,27.37
2022-09-12T13:05:54.030Z,27.1
2022-09-12T13:11:25.726Z,27.41
2022-09-12T13:16:57.470Z,27.35
2022-09-12T13:22:29.204Z,26.83
2022-09-12T13:28:00.919Z,26.78
2022-09-12T13:33:37.089Z,27.24
2022-09-12T13:39:08.971Z,27.28
2022-09-12T13:44:40.512Z,27.4
2022-09-12T13:50:12.224Z,26.56
2022-09-12T13:55:43.961Z,27.48
2022-09-12T14:01:15.715Z,27.41
2022-09-12T14:06:47.442Z,27.23
2022-09-12T14:12:19.141Z,27.2
2022-09-12T14:17:50.837Z,26.94
2022-09-12T14:23:22.577Z,27.46
2022-09-12T14:28:54.349Z,27.7
2022-09-12T14:34:32.407Z,27.72
2022-09-12T14:40:04.299Z,27.85
2022-09-12T14:45:35.890Z,27.37
2022-09-12T14:51:07.582Z,28.01
2022-09-12T14:56:39.574Z,27.93
2022-09-12T15:02:11.029Z,27.74
2022-09-12T15:07:42.785Z,27.56
2022-09-12T15:13:14.497Z,27.62
2022-09-12T15:18:46.134Z,27.64
2022-09-12T15:24:17.929Z,27.87
2022-09-12T15:29:49.629Z,27.37
2022-09-12T15:35:25.765Z,27.74
2022-09-12T15:40:57.453Z,27.35
2022-09-12T15:46:29.181Z,27.55
2022-09-12T15:52:00.894Z,27.73
2022-09-12T15:57:32.637Z,27.53
2022-09-12T16:03:04.376Z,27.35
2022-09-12T16:08:36.183Z,27.24
2022-09-12T16:14:07.848Z,27.53
2022-09-12T16:19:39.533Z,27.14
2022-09-12T16:25:11.229Z,27.23
2022-09-12T16:30:43.076Z,27.14
2022-09-12T16:36:19.116Z,27.01
2022-09-12T16:41:50.843Z,26.84
2022-09-12T16:47:22.537Z,26.74
2022-09-12T16:52:54.325Z,26.57
2022-09-12T16:58:26.041Z,26.44
2022-09-12T17:03:57.797Z,26.22
2022-09-12T17:09:29.488Z,26.09
2022-09-12T17:15:01.212Z,26.01
2022-09-12T17:20:32.981Z,25.87
2022-09-12T17:26:04.712Z,25.72
2022-09-12T17:31:36.466Z,25.48
2022-09-12T17:37:12.604Z,25.19
2022-09-12T17:42:44.268Z,24.93
2022-09-12T17:48:16.032Z,24.7
2022-09-12T17:53:47.782Z,24.51
2022-09-12T17:59:19.437Z,24.27
2022-09-12T18:04:51.214Z,24.09
2022-09-12T18:10:22.958Z,23.9
2022-09-12T18:15:54.655Z,23.69
2022-09-12T18:21:26.330Z,23.67
2022-09-12T18:26:58.233Z,23.51
2022-09-12T18:32:29.813Z,23.38
2022-09-12T18:38:07.897Z,23.31
2022-09-12T18:43:39.621Z,23.19
2022-09-12T18:49:11.333Z,23.0
2022-09-12T18:54:43.185Z,23.0
2022-09-12T19:00:14.857Z,23.08
2022-09-12T19:05:46.503Z,22.99
2022-09-12T19:11:18.245Z,22.93
2022-09-12T19:16:50.324Z,22.79
2022-09-12T19:22:21.685Z,22.66
2022-09-12T19:27:53.474Z,22.54
2022-09-12T19:33:25.145Z,22.44
2022-09-12T19:39:03.486Z,22.51
2022-09-12T19:44:34.993Z,22.42
2022-09-12T19:50:06.716Z,22.33
2022-09-12T19:55:38.453Z,22.36
2022-09-12T20:01:10.185Z,22.24
2022-09-12T20:06:41.865Z,22.07
2022-09-12T20:12:13.615Z,22.04
2022-09-12T20:17:45.353Z,21.93
2022-09-12T20:23:17.138Z,21.76
2022-09-12T20:28:48.850Z,21.53
2022-09-12T20:34:20.634Z,21.35
2022-09-12T20:40:00.774Z,21.14
2022-09-12T20:45:32.422Z,21.29
2022-09-12T20:51:04.198Z,21.23
2022-09-12T20:56:35.950Z,21.25
2022-09-12T21:02:07.728Z,21.28
2022-09-12T21:07:39.315Z,21.19
2022-09-12T21:13:11.049Z,21.27
2022-09-12T21:18:42.733Z,21.24
2022-09-12T21:24:14.534Z,21.2
2022-09-12T21:29:46.222Z,20.99
2022-09-12T21:35:17.986Z,21.16
2022-09-12T21:40:54.118Z,21.19
2022-09-12T21:46:25.876Z,21.08
2022-09-12T21:51:57.526Z,20.96
2022-09-12T21:57:29.285Z,20.91
2022-09-12T22:03:00.953Z,20.87
2022-09-12T22:08:32.753Z,20.71
2022-09-12T22:14:04.421Z,20.59
2022-09-12T22:19:36.204Z,20.41
2022-09-12T22:25:07.905Z,20.51
2022-09-12T22:30:39.593Z,20.4
2022-09-12T22:36:11.341Z,20.36
2022-09-12T22:41:47.405Z,20.32
2022-09-12T22:47:19.165Z,20.46
2022-09-12T22:52:50.892Z,20.36
2022-09-12T22:58:22.626Z,20.43
2022-09-12T23:03:54.349Z,20.32
2022-09-12T23:09:26.490Z,20.13
2022-09-12T23:14:57.770Z,20.07
2022-09-12T23:20:29.549Z,20.04
2022-09-12T23:26:01.538Z,19.96
2022-09-12T23:31:32.976Z,19.95
2022-09-12T23:37:04.733Z,20.0
2022-09-12T23:42:40.788Z,19.89
2022-09-12T23:48:12.513Z,19.97
2022-09-12T23:53:44.414Z,19.87
2022-09-12T23:59:15.968Z,19.94
